createdAt,value
2022-07-30T00:00:57.602Z,100725.63
2022-07-30T00:03:30.102Z,100724.18
2022-07-30T00:06:02.821Z,100721.32
2022-07-30T00:08:35.361Z,100718.09
2022-07-30T00:11:08.073Z,100712.88
2022-07-30T00:13:40.579Z,100713.17
2022-07-30T00:16:13.395Z,100717.00
2022-07-30T00:18:46.116Z,100719.98
2022-07-30T00:21:20.366Z,100718.45
2022-07-30T00:24:09.962Z,100714.44
2022-07-30T00:26:42.882Z,100717.92
2022-07-30T00:29:15.454Z,100713.40
2022-07-30T00:31:47.993Z,100706.48
2022-07-30T00:34:20.460Z,100699.73
2022-07-30T00:36:53.084Z,100696.52
2022-07-30T00:39:25.667Z,100697.26
2022-07-30T00:42:00.861Z,100700.37
2022-07-30T00:44:33.377Z,100701.53
2022-07-30T00:47:06.347Z,100703.40
2022-07-30T00:49:43.931Z,100708.27
2022-07-30T00:52:17.072Z,100710.27
2022-07-30T00:54:49.605Z,100715.09
2022-07-30T00:57:22.077Z,100719.41
2022-07-30T00:59:55.929Z,100716.71
2022-07-30T01:02:28.652Z,100716.70
2022-07-30T01:05:01.237Z,100717.41
2022-07-30T01:07:34.007Z,100713.75
2022-07-30T01:10:08.566Z,100706.35
2022-07-30T01:12:42.339Z,100707.95
2022-07-30T01:15:15.095Z,100705.34
2022-07-30T01:17:52.996Z,100701.69
2022-07-30T01:20:28.644Z,100702.52
2022-07-30T01:23:09.775Z,100697.14
2022-07-30T01:25:55.600Z,100697.08
2022-07-30T01:28:34.166Z,100693.53
2022-07-30T01:31:08.463Z,100692.67
2022-07-30T01:33:44.454Z,100690.32
2022-07-30T01:36:19.710Z,100687.15
2022-07-30T01:38:54.381Z,100686.13
2022-07-30T01:41:30.956Z,100687.04
2022-07-30T01:44:04.665Z,100685.98
2022-07-30T01:46:38.700Z,100680.52
2022-07-30T01:49:13.141Z,100678.77
2022-07-30T01:51:49.253Z,100679.66
2022-07-30T01:54:23.054Z,100678.51
2022-07-30T01:57:10.955Z,100675.90
2022-07-30T01:59:48.247Z,100679.89
2022-07-30T02:02:21.054Z,100680.13
2022-07-30T02:04:53.674Z,100682.29
2022-07-30T02:07:34.045Z,100680.08
2022-07-30T02:10:12.404Z,100677.15
2022-07-30T02:12:53.928Z,100680.94
2022-07-30T02:15:31.562Z,100682.55
2022-07-30T02:18:09.630Z,100687.59
2022-07-30T02:20:49.530Z,100685.93
2022-07-30T02:23:25.138Z,100686.64
2022-07-30T02:26:01.089Z,100689.56
2022-07-30T02:28:36.260Z,100687.36
2022-07-30T02:31:17.098Z,100683.73
2022-07-30T02:33:54.272Z,100681.00
2022-07-30T02:36:28.210Z,100679.85
2022-07-30T02:39:03.553Z,100678.80
2022-07-30T02:41:37.489Z,100684.49
2022-07-30T02:44:11.497Z,100685.16
2022-07-30T02:46:44.686Z,100681.60
2022-07-30T02:49:19.957Z,100677.14
2022-07-30T02:51:53.191Z,100676.52
2022-07-30T02:54:31.318Z,100675.58
2022-07-30T02:57:05.555Z,100674.39
2022-07-30T02:59:41.356Z,100672.85
2022-07-30T03:02:29.102Z,100669.55
2022-07-30T03:05:12.258Z,100668.98
2022-07-30T03:07:46.971Z,100668.15
2022-07-30T03:10:20.224Z,100671.12
2022-07-30T03:12:54.261Z,100668.00
2022-07-30T03:15:27.875Z,100670.85
2022-07-30T03:18:02.218Z,100673.84
2022-07-30T03:20:37.631Z,100674.23
2022-07-30T03:23:13.169Z,100679.52
2022-07-30T03:25:48.021Z,100677.68
2022-07-30T03:28:23.515Z,100679.66
2022-07-30T03:30:56.637Z,100682.16
2022-07-30T03:33:38.818Z,100681.84
2022-07-30T03:36:13.903Z,100682.48
2022-07-30T03:38:48.860Z,100684.64
2022-07-30T03:41:22.734Z,100680.71
2022-07-30T03:43:56.813Z,100680.41
2022-07-30T03:46:30.569Z,100679.95
2022-07-30T03:49:04.237Z,100676.41
2022-07-30T03:51:38.271Z,100678.98
2022-07-30T03:54:13.696Z,100683.55
2022-07-30T03:56:46.887Z,100683.93
2022-07-30T03:59:19.470Z,100679.26
2022-07-30T04:01:55.817Z,100681.21
2022-07-30T04:04:36.550Z,100682.54
2022-07-30T04:07:09.285Z,100681.66
2022-07-30T04:09:42.160Z,100681.86
2022-07-30T04:12:15.124Z,100682.81
2022-07-30T04:14:51.084Z,100688.59
2022-07-30T04:17:27.484Z,100692.22
2022-07-30T04:20:07.563Z,100686.84
2022-07-30T04:22:41.754Z,100684.91
2022-07-30T04:25:24.198Z,100679.70
2022-07-30T04:28:03.688Z,100679.24
2022-07-30T04:30:37.082Z,100679.20
2022-07-30T04:33:10.599Z,100683.52
2022-07-30T04:35:51.114Z,100682.17
2022-07-30T04:38:25.816Z,100684.27
2022-07-30T04:40:58.296Z,100680.98
2022-07-30T04:43:30.737Z,100678.73
2022-07-30T04:46:03.448Z,100685.02
2022-07-30T04:48:35.901Z,100686.65
2022-07-30T04:51:14.225Z,100686.46
2022-07-30T04:53:48.281Z,100684.52
2022-07-30T04:56:22.146Z,100677.85
2022-07-30T04:58:56.052Z,100676.50
2022-07-30T05:01:41.016Z,100678.16
2022-07-30T05:04:14.277Z,100673.74
2022-07-30T05:06:47.317Z,100676.95
2022-07-30T05:09:21.514Z,100676.66
2022-07-30T05:11:57.811Z,100679.43
2022-07-30T05:14:30.420Z,100682.45
2022-07-30T05:17:03.428Z,100683.48
2022-07-30T05:19:36.362Z,100682.41
2022-07-30T05:22:08.881Z,100683.04
2022-07-30T05:24:46.928Z,100682.30
2022-07-30T05:27:22.323Z,100675.46
2022-07-30T05:30:00.436Z,100678.20
2022-07-30T05:32:33.251Z,100678.09
2022-07-30T05:35:06.068Z,100678.16
2022-07-30T05:37:38.581Z,100678.10
2022-07-30T05:40:13.173Z,100677.30
2022-07-30T05:42:46.406Z,100679.80
2022-07-30T05:45:19.399Z,100678.73
2022-07-30T05:47:51.961Z,100681.27
2022-07-30T05:50:24.634Z,100676.98
2022-07-30T05:52:58.689Z,100675.73
2022-07-30T05:55:31.153Z,100672.15
2022-07-30T05:58:08.014Z,100676.84
2022-07-30T06:00:41.184Z,100677.92
2022-07-30T06:03:14.082Z,100685.46
2022-07-30T06:05:46.921Z,100684.19
2022-07-30T06:08:19.450Z,100681.58
2022-07-30T06:10:51.854Z,100681.86
2022-07-30T06:13:25.178Z,100676.48
2022-07-30T06:15:57.779Z,100680.77
2022-07-30T06:18:30.605Z,100673.27
2022-07-30T06:21:03.185Z,100675.02
2022-07-30T06:23:38.496Z,100676.39
2022-07-30T06:26:11.391Z,100679.88
2022-07-30T06:28:43.807Z,100679.67
2022-07-30T06:31:16.512Z,100673.60
2022-07-30T06:33:52.763Z,100670.66
2022-07-30T06:36:25.271Z,100667.45
2022-07-30T06:38:57.860Z,100669.45
2022-07-30T06:41:30.519Z,100668.08
2022-07-30T06:44:03.168Z,100665.23
2022-07-30T06:46:35.910Z,100666.05
2022-07-30T06:49:08.541Z,100660.80
2022-07-30T06:51:41.576Z,100664.81
2022-07-30T06:54:16.013Z,100666.95
2022-07-30T06:56:48.750Z,100663.55
2022-07-30T06:59:22.090Z,100661.29
2022-07-30T07:01:55.191Z,100665.17
2022-07-30T07:04:28.307Z,100664.78
2022-07-30T07:07:01.579Z,100667.08
2022-07-30T07:09:45.177Z,100666.82
2022-07-30T07:12:17.706Z,100661.14
2022-07-30T07:14:50.230Z,100657.60
2022-07-30T07:17:23.138Z,100650.95
2022-07-30T07:20:01.336Z,100648.34
2022-07-30T07:22:34.949Z,100647.66
2022-07-30T07:25:08.807Z,100644.47
2022-07-30T07:27:41.837Z,100638.68
2022-07-30T07:30:15.431Z,100634.64
2022-07-30T07:32:48.263Z,100634.30
2022-07-30T07:35:20.998Z,100635.54
2022-07-30T07:37:53.590Z,100633.35
2022-07-30T07:40:26.675Z,100631.81
2022-07-30T07:42:59.271Z,100633.27
2022-07-30T07:45:32.084Z,100633.19
2022-07-30T07:48:04.881Z,100634.89
2022-07-30T07:50:37.850Z,100636.36
2022-07-30T07:53:10.423Z,100637.52
2022-07-30T07:55:43.002Z,100629.79
2022-07-30T07:58:17.581Z,100631.39
2022-07-30T08:00:58.168Z,100633.64
2022-07-30T08:03:30.557Z,100635.19
2022-07-30T08:06:06.326Z,100634.31
2022-07-30T08:08:43.290Z,100638.31
2022-07-30T08:11:16.905Z,100640.77
2022-07-30T08:13:56.196Z,100639.40
2022-07-30T08:16:29.411Z,100637.65
2022-07-30T08:19:07.016Z,100636.83
2022-07-30T08:21:39.809Z,100634.09
2022-07-30T08:24:13.207Z,100633.57
2022-07-30T08:26:46.097Z,100631.40
2022-07-30T08:29:18.793Z,100627.48
2022-07-30T08:31:51.758Z,100624.94
2022-07-30T08:34:25.780Z,100626.86
2022-07-30T08:36:58.642Z,100628.87
2022-07-30T08:39:40.034Z,100627.15
2022-07-30T08:42:14.990Z,100623.77
2022-07-30T08:44:48.071Z,100622.22
2022-07-30T08:47:23.057Z,100615.41
2022-07-30T08:49:56.725Z,100616.43
2022-07-30T08:52:36.988Z,100617.42
2022-07-30T08:55:11.344Z,100610.02
2022-07-30T08:57:44.780Z,100610.61
2022-07-30T09:00:19.100Z,100605.48
2022-07-30T09:03:44.329Z,100605.32
2022-07-30T09:06:18.396Z,100600.33
2022-07-30T09:08:50.918Z,100592.52
2022-07-30T09:11:24.053Z,100590.42
2022-07-30T09:14:08.792Z,100587.89
2022-07-30T09:16:44.311Z,100580.83
2022-07-30T09:19:21.879Z,100580.27
2022-07-30T09:22:02.985Z,100582.23
2022-07-30T09:24:44.642Z,100579.41
2022-07-30T09:27:17.353Z,100577.88
2022-07-30T09:30:00.398Z,100574.97
2022-07-30T09:32:50.820Z,100567.10
2022-07-30T09:35:23.967Z,100559.26
2022-07-30T09:38:06.507Z,100555.75
2022-07-30T09:40:42.866Z,100553.57
2022-07-30T09:43:15.826Z,100551.20
2022-07-30T09:45:57.979Z,100551.79
2022-07-30T09:48:31.685Z,100548.21
2022-07-30T09:51:04.582Z,100541.10
2022-07-30T09:53:38.050Z,100542.04
2022-07-30T09:56:27.704Z,100538.73
2022-07-30T09:59:02.938Z,100532.39
2022-07-30T10:01:59.197Z,100527.41
2022-07-30T10:04:34.532Z,100528.31
2022-07-30T10:07:25.290Z,100524.59
2022-07-30T10:10:02.618Z,100521.27
2022-07-30T10:12:41.058Z,100520.64
2022-07-30T10:15:14.979Z,100516.71
2022-07-30T10:17:48.679Z,100515.52
2022-07-30T10:20:21.736Z,100511.99
2022-07-30T10:22:54.305Z,100505.84
2022-07-30T10:25:28.444Z,100508.65
2022-07-30T10:28:03.313Z,100499.82
2022-07-30T10:30:36.565Z,100497.80
2022-07-30T10:33:36.438Z,100496.47
2022-07-30T10:36:05.208Z,100490.12
2022-07-30T10:38:41.612Z,100484.97
2022-07-30T10:41:42.829Z,100485.80
2022-07-30T10:44:57.862Z,100482.24
2022-07-30T10:47:33.556Z,100482.19
2022-07-30T10:50:12.439Z,100483.31
2022-07-30T10:52:53.434Z,100484.40
2022-07-30T10:55:36.550Z,100475.08
2022-07-30T10:58:15.577Z,100474.08
2022-07-30T11:01:01.907Z,100467.52
2022-07-30T11:03:41.070Z,100461.36
2022-07-30T11:06:30.853Z,100451.82
2022-07-30T11:09:03.664Z,100452.50
2022-07-30T11:12:16.323Z,100448.69
2022-07-30T11:15:07.220Z,100446.54
2022-07-30T11:18:12.881Z,100443.42
2022-07-30T11:21:15.331Z,100438.98
2022-07-30T11:23:49.485Z,100440.77
2022-07-30T11:26:51.618Z,100433.57
2022-07-30T11:29:50.519Z,100429.05
2022-07-30T11:32:36.862Z,100421.80
2022-07-30T11:35:22.990Z,100420.27
2022-07-30T11:38:08.924Z,100416.17
2022-07-30T11:41:02.347Z,100408.10
2022-07-30T11:43:37.036Z,100400.58
2022-07-30T11:46:10.939Z,100405.57
2022-07-30T11:49:00.263Z,100405.02
2022-07-30T11:51:43.742Z,100398.20
2022-07-30T11:54:16.861Z,100395.94
2022-07-30T11:57:04.286Z,100389.64
2022-07-30T11:59:55.959Z,100389.21
2022-07-30T12:02:31.369Z,100388.11
2022-07-30T12:05:04.844Z,100383.98
2022-07-30T12:07:37.186Z,100376.92
2022-07-30T12:10:27.102Z,100364.78
2022-07-30T12:13:15.292Z,100363.11
2022-07-30T12:15:49.175Z,100351.99
2022-07-30T12:18:29.582Z,100346.23
2022-07-30T12:21:03.696Z,100341.31
2022-07-30T12:23:36.678Z,100338.77
2022-07-30T12:26:09.223Z,100337.66
2022-07-30T12:28:41.679Z,100341.40
2022-07-30T12:31:17.833Z,100336.52
2022-07-30T12:33:50.339Z,100326.23
2022-07-30T12:36:32.083Z,100319.54
2022-07-30T12:39:06.812Z,100325.55
2022-07-30T12:41:46.998Z,100321.27
2022-07-30T12:44:42.442Z,100310.60
2022-07-30T12:47:26.801Z,100301.71
2022-07-30T12:50:01.638Z,100295.20
2022-07-30T12:52:36.076Z,100297.05
2022-07-30T12:55:12.595Z,100293.92
2022-07-30T12:58:01.705Z,100290.95
2022-07-30T13:00:52.950Z,100283.52
2022-07-30T13:03:27.641Z,100281.53
2022-07-30T13:06:00.629Z,100275.07
2022-07-30T13:08:52.039Z,100269.73
2022-07-30T13:11:26.049Z,100267.21
2022-07-30T13:13:58.460Z,100255.78
2022-07-30T13:16:35.011Z,100249.23
2022-07-30T13:19:08.250Z,100241.10
2022-07-30T13:21:42.974Z,100241.08
2022-07-30T13:24:22.896Z,100239.58
2022-07-30T13:26:55.394Z,100233.69
2022-07-30T13:29:29.206Z,100225.05
2022-07-30T13:32:01.496Z,100224.72
2022-07-30T13:34:33.965Z,100222.85
2022-07-30T13:37:06.583Z,100218.95
2022-07-30T13:39:39.039Z,100217.98
2022-07-30T13:42:11.394Z,100214.17
2022-07-30T13:44:44.054Z,100215.61
2022-07-30T13:47:19.293Z,100213.67
2022-07-30T13:49:51.870Z,100210.48
2022-07-30T13:52:24.165Z,100211.59
2022-07-30T13:54:56.930Z,100208.56
2022-07-30T13:57:29.309Z,100207.79
2022-07-30T14:00:02.156Z,100201.30
2022-07-30T14:02:34.647Z,100201.89
2022-07-30T14:05:08.131Z,100193.11
2022-07-30T14:07:41.095Z,100190.19
2022-07-30T14:10:13.710Z,100185.72
2022-07-30T14:12:46.192Z,100183.02
2022-07-30T14:15:19.055Z,100187.71
2022-07-30T14:17:56.069Z,100185.79
2022-07-30T14:20:29.499Z,100180.45
2022-07-30T14:23:01.876Z,100175.00
2022-07-30T14:25:34.772Z,100172.02
2022-07-30T14:28:07.551Z,100169.58
2022-07-30T14:30:40.097Z,100165.94
2022-07-30T14:33:12.850Z,100162.64
2022-07-30T14:35:45.489Z,100163.58
2022-07-30T14:38:17.726Z,100161.77
2022-07-30T14:40:50.317Z,100160.20
2022-07-30T14:43:25.094Z,100153.55
2022-07-30T14:45:57.588Z,100157.68
2022-07-30T14:48:30.119Z,100157.48
2022-07-30T14:51:16.011Z,100150.06
2022-07-30T14:53:52.197Z,100144.88
2022-07-30T14:56:25.310Z,100145.52
2022-07-30T14:58:58.868Z,100144.00
2022-07-30T15:01:31.781Z,100143.55
2022-07-30T15:06:41.246Z,100139.77
2022-07-30T15:09:13.935Z,100137.88
2022-07-30T15:14:40.016Z,100135.45
2022-07-30T15:17:12.734Z,100136.63
2022-07-30T15:19:50.375Z,100129.24
2022-07-30T15:22:23.664Z,100128.34
2022-07-30T15:24:56.163Z,100127.65
2022-07-30T15:27:33.963Z,100125.30
2022-07-30T15:30:09.040Z,100130.84
2022-07-30T15:32:41.461Z,100131.59
2022-07-30T15:35:14.328Z,100133.27
2022-07-30T15:37:47.506Z,100131.77
2022-07-30T15:40:20.248Z,100133.36
2022-07-30T15:42:53.147Z,100130.77
2022-07-30T15:45:25.771Z,100130.38
2022-07-30T15:47:58.371Z,100128.81
2022-07-30T15:50:30.712Z,100126.83
2022-07-30T15:53:09.339Z,100121.58
2022-07-30T15:55:46.973Z,100121.98
2022-07-30T15:58:19.986Z,100123.73
2022-07-30T16:00:52.479Z,100124.11
2022-07-30T16:03:25.339Z,100129.30
2022-07-30T16:05:58.005Z,100132.34
2022-07-30T16:08:30.664Z,100128.38
2022-07-30T16:11:04.578Z,100129.86
2022-07-30T16:13:36.970Z,100130.91
2022-07-30T16:16:09.601Z,100124.45
2022-07-30T16:18:42.225Z,100124.81
2022-07-30T16:21:14.943Z,100125.70
2022-07-30T16:23:47.287Z,100127.45
2022-07-30T16:26:20.099Z,100123.91
2022-07-30T16:28:52.950Z,100118.98
2022-07-30T16:31:25.892Z,100127.40
2022-07-30T16:33:59.011Z,100126.86
2022-07-30T16:36:31.520Z,100124.16
2022-07-30T16:39:04.558Z,100131.53
2022-07-30T16:41:37.040Z,100136.40
2022-07-30T16:44:10.053Z,100133.36
2022-07-30T16:46:42.766Z,100135.05
2022-07-30T16:49:15.480Z,100134.53
2022-07-30T16:51:47.878Z,100135.64
2022-07-30T16:54:20.431Z,100137.36
2022-07-30T16:56:53.132Z,100142.34
2022-07-30T16:59:25.658Z,100142.82
2022-07-30T17:01:58.291Z,100150.86
2022-07-30T17:04:31.018Z,100153.80
2022-07-30T17:07:03.449Z,100154.05
2022-07-30T17:09:37.110Z,100160.02
2022-07-30T17:12:12.215Z,100160.81
2022-07-30T17:14:45.365Z,100161.55
2022-07-30T17:17:18.065Z,100168.36
2022-07-30T17:19:50.804Z,100170.80
2022-07-30T17:22:23.653Z,100182.23
2022-07-30T17:24:56.160Z,100179.63
2022-07-30T17:27:31.794Z,100179.77
2022-07-30T17:30:05.124Z,100180.00
2022-07-30T17:32:37.621Z,100175.31
2022-07-30T17:35:13.982Z,100178.54
2022-07-30T17:37:46.620Z,100178.05
2022-07-30T17:40:29.124Z,100180.44
2022-07-30T17:43:08.045Z,100180.02
2022-07-30T17:45:42.779Z,100180.41
2022-07-30T17:48:15.171Z,100181.95
2022-07-30T17:50:47.726Z,100184.04
2022-07-30T17:53:20.148Z,100190.29
2022-07-30T17:55:57.379Z,100189.43
2022-07-30T17:58:32.131Z,100193.27
2022-07-30T18:01:05.146Z,100188.72
2022-07-30T18:03:37.784Z,100193.59
2022-07-30T18:06:17.933Z,100198.01
2022-07-30T18:08:50.807Z,100195.11
2022-07-30T18:11:23.392Z,100195.65
2022-07-30T18:13:56.950Z,100197.02
2022-07-30T18:16:29.594Z,100198.02
2022-07-30T18:19:02.010Z,100192.80
2022-07-30T18:21:34.736Z,100195.21
2022-07-30T18:24:12.987Z,100196.58
2022-07-30T18:26:47.088Z,100194.06
2022-07-30T18:29:20.981Z,100195.17
2022-07-30T18:31:53.798Z,100197.86
2022-07-30T18:35:17.698Z,100196.21
2022-07-30T18:37:50.702Z,100201.38
2022-07-30T18:40:24.611Z,100203.63
2022-07-30T18:42:57.281Z,100205.74
2022-07-30T18:45:35.239Z,100211.67
2022-07-30T18:48:10.167Z,100214.51
2022-07-30T18:50:42.863Z,100212.27
2022-07-30T18:53:16.881Z,100210.83
2022-07-30T18:55:49.216Z,100215.31
2022-07-30T18:58:22.182Z,100219.34
2022-07-30T19:00:57.007Z,100222.02
2022-07-30T19:03:30.132Z,100220.33
2022-07-30T19:06:02.449Z,100217.27
2022-07-30T19:08:35.159Z,100214.02
2022-07-30T19:11:07.474Z,100212.04
2022-07-30T19:13:41.867Z,100211.61
2022-07-30T19:16:14.427Z,100208.45
2022-07-30T19:18:47.110Z,100206.53
2022-07-30T19:21:19.587Z,100208.80
2022-07-30T19:23:52.607Z,100205.83
2022-07-30T19:26:27.127Z,100196.30
2022-07-30T19:28:59.705Z,100192.29
2022-07-30T19:31:32.443Z,100191.63
2022-07-30T19:34:07.284Z,100189.84
2022-07-30T19:36:40.089Z,100185.73
2022-07-30T19:39:16.135Z,100185.29
2022-07-30T19:41:54.537Z,100184.16
2022-07-30T19:44:27.149Z,100181.30
2022-07-30T19:47:00.110Z,100178.08
2022-07-30T19:49:33.195Z,100176.40
2022-07-30T19:52:23.664Z,100181.45
2022-07-30T19:54:59.475Z,100183.87
2022-07-30T19:57:53.112Z,100189.20
2022-07-30T20:00:25.435Z,100188.89
2022-07-30T20:02:58.671Z,100189.29
2022-07-30T20:05:57.139Z,100192.36
2022-07-30T20:08:26.342Z,100191.55
2022-07-30T20:10:59.523Z,100187.94
2022-07-30T20:13:44.105Z,100183.03
2022-07-30T20:16:18.798Z,100180.69
2022-07-30T20:18:54.824Z,100177.80
2022-07-30T20:21:56.889Z,100182.65
2022-07-30T20:24:21.113Z,100187.33
2022-07-30T20:48:35.427Z,100219.70
2022-07-30T20:51:09.481Z,100220.21
2022-07-30T20:53:41.937Z,100220.41
2022-07-30T20:56:19.281Z,100220.19
2022-07-30T20:58:49.725Z,100203.80
2022-07-30T21:01:51.138Z,100206.54
2022-07-30T21:04:31.266Z,100204.61
2022-07-30T21:07:08.142Z,100201.70
2022-07-30T21:09:49.936Z,100199.26
2022-07-30T21:12:32.868Z,100192.73
2022-07-30T21:15:02.558Z,100190.94
2022-07-30T21:17:38.512Z,100195.38
2022-07-30T21:23:59.652Z,100190.02
2022-07-30T21:26:33.209Z,100196.80
2022-07-30T21:29:08.832Z,100200.32
2022-07-30T21:32:00.521Z,100206.46
2022-07-30T21:34:41.844Z,100208.66
2022-07-30T21:37:18.710Z,100205.90
2022-07-30T21:40:05.816Z,100205.32
2022-07-30T21:42:57.102Z,100208.81
2022-07-30T21:45:41.505Z,100209.70
2022-07-30T21:48:28.886Z,100214.23
2022-07-30T21:50:59.167Z,100209.73
2022-07-30T21:53:45.926Z,100216.39
2022-07-30T21:56:33.517Z,100220.19
2022-07-30T21:59:10.356Z,100220.09
2022-07-30T22:01:50.770Z,100225.54
2022-07-30T22:04:27.362Z,100236.75
2022-07-30T22:07:14.172Z,100237.76
2022-07-30T22:09:48.817Z,100230.05
2022-07-30T22:12:20.868Z,100237.95
2022-07-30T22:14:56.167Z,100238.18
2022-07-30T22:17:58.861Z,100245.21
2022-07-30T22:20:37.401Z,100250.37
2022-07-30T22:23:34.792Z,100249.14
2022-07-30T22:26:09.626Z,100243.45
2022-07-30T22:28:43.539Z,100250.84
2022-07-30T22:31:21.430Z,100265.23
2022-07-30T22:33:57.378Z,100271.60
2022-07-30T22:36:31.690Z,100263.08
2022-07-30T22:39:09.052Z,100273.54
2022-07-30T22:41:46.477Z,100258.08
2022-07-30T22:44:24.889Z,100264.07
2022-07-30T22:46:58.309Z,100255.63
2022-07-30T22:49:53.318Z,100257.38
2022-07-30T22:52:23.026Z,100248.85
2022-07-30T22:55:08.983Z,100242.17
2022-07-30T22:57:46.524Z,100253.36
2022-07-30T23:00:31.684Z,100245.54
2022-07-30T23:03:23.659Z,100247.37
2022-07-30T23:05:58.570Z,100250.18
2022-07-30T23:08:43.413Z,100250.64
2022-07-30T23:11:18.067Z,100256.98
2022-07-30T23:14:00.496Z,100259.66
2022-07-30T23:16:50.474Z,100250.59
2022-07-30T23:19:25.808Z,100247.83
2022-07-30T23:22:11.532Z,100240.08
2022-07-30T23:25:03.284Z,100238.48
2022-07-30T23:27:41.601Z,100236.89
2022-07-30T23:30:20.511Z,100241.80
2022-07-30T23:33:02.891Z,100250.07
2022-07-30T23:35:55.122Z,100251.77
2022-07-30T23:38:33.098Z,100248.77
2022-07-30T23:41:03.568Z,100249.96
2022-07-30T23:43:32.689Z,100259.07
2022-07-30T23:46:02.409Z,100259.86
2022-07-30T23:48:31.791Z,100262.21
2022-07-30T23:51:00.925Z,100256.94
2022-07-30T23:53:30.060Z,100253.69
2022-07-30T23:55:58.978Z,100254.52
2022-07-30T23:58:27.916Z,100257.34
